sensor_id;sensor_type;location;lat;lon;timestamp;temperature;humidity
3986;DHT22;2007;48.750;9.278;2023-02-02T00:01:23;13.80;49.60
3986;DHT22;2007;48.750;9.278;2023-02-02T00:03:51;13.90;49.70
3986;DHT22;2007;48.750;9.278;2023-02-02T00:06:23;13.90;49.70
3986;DHT22;2007;48.750;9.278;2023-02-02T00:08:51;13.90;49.70
3986;DHT22;2007;48.750;9.278;2023-02-02T00:11:19;13.90;49.70
3986;DHT22;2007;48.750;9.278;2023-02-02T00:13:47;13.90;49.70
3986;DHT22;2007;48.750;9.278;2023-02-02T00:16:36;13.90;49.70
3986;DHT22;2007;48.750;9.278;2023-02-02T00:19:06;13.90;49.70
3986;DHT22;2007;48.750;9.278;2023-02-02T00:21:35;13.90;49.70
3986;DHT22;2007;48.750;9.278;2023-02-02T00:24:04;13.90;49.70
3986;DHT22;2007;48.750;9.278;2023-02-02T00:26:32;13.90;49.70
3986;DHT22;2007;48.750;9.278;2023-02-02T00:29:01;13.90;50.40
3986;DHT22;2007;48.750;9.278;2023-02-02T00:31:28;13.90;49.70
3986;DHT22;2007;48.750;9.278;2023-02-02T00:33:58;13.90;49.70
3986;DHT22;2007;48.750;9.278;2023-02-02T00:36:26;13.90;49.70
3986;DHT22;2007;48.750;9.278;2023-02-02T00:38:54;13.90;49.70
3986;DHT22;2007;48.750;9.278;2023-02-02T00:41:22;13.90;49.70
3986;DHT22;2007;48.750;9.278;2023-02-02T00:43:49;13.90;49.70
3986;DHT22;2007;48.750;9.278;2023-02-02T00:46:31;13.90;49.70
3986;DHT22;2007;48.750;9.278;2023-02-02T00:49:01;13.90;49.70
3986;DHT22;2007;48.750;9.278;2023-02-02T00:51:29;13.90;50.30
3986;DHT22;2007;48.750;9.278;2023-02-02T00:53:56;13.90;49.70
3986;DHT22;2007;48.750;9.278;2023-02-02T00:56:24;13.90;49.70
3986;DHT22;2007;48.750;9.278;2023-02-02T00:58:52;13.90;49.70
3986;DHT22;2007;48.750;9.278;2023-02-02T01:01:21;13.90;49.70
3986;DHT22;2007;48.750;9.278;2023-02-02T01:03:49;13.90;49.70
3986;DHT22;2007;48.750;9.278;2023-02-02T01:06:19;13.90;50.40
3986;DHT22;2007;48.750;9.278;2023-02-02T01:08:47;13.90;49.70
3986;DHT22;2007;48.750;9.278;2023-02-02T01:11:15;13.90;49.70
3986;DHT22;2007;48.750;9.278;2023-02-02T01:13:43;13.90;49.70
3986;DHT22;2007;48.750;9.278;2023-02-02T01:16:11;13.90;49.70
3986;DHT22;2007;48.750;9.278;2023-02-02T01:18:39;14.00;49.80
3986;DHT22;2007;48.750;9.278;2023-02-02T01:21:09;14.00;49.80
3986;DHT22;2007;48.750;9.278;2023-02-02T01:23:38;13.90;49.70
3986;DHT22;2007;48.750;9.278;2023-02-02T01:26:10;14.00;49.80
3986;DHT22;2007;48.750;9.278;2023-02-02T01:28:38;13.90;49.70
3986;DHT22;2007;48.750;9.278;2023-02-02T01:31:09;14.00;49.80
3986;DHT22;2007;48.750;9.278;2023-02-02T01:33:37;13.90;49.70
3986;DHT22;2007;48.750;9.278;2023-02-02T01:36:08;14.00;49.80
3986;DHT22;2007;48.750;9.278;2023-02-02T01:38:38;13.90;49.70
3986;DHT22;2007;48.750;9.278;2023-02-02T01:41:06;14.00;49.80
3986;DHT22;2007;48.750;9.278;2023-02-02T01:43:56;14.00;49.80
3986;DHT22;2007;48.750;9.278;2023-02-02T01:46:26;14.00;49.80
3986;DHT22;2007;48.750;9.278;2023-02-02T01:48:59;14.00;49.80
3986;DHT22;2007;48.750;9.278;2023-02-02T01:51:34;13.90;49.70
3986;DHT22;2007;48.750;9.278;2023-02-02T01:54:07;13.90;49.70
3986;DHT22;2007;48.750;9.278;2023-02-02T01:56:40;14.00;49.70
3986;DHT22;2007;48.750;9.278;2023-02-02T01:59:13;14.00;49.80
3986;DHT22;2007;48.750;9.278;2023-02-02T02:01:42;14.00;49.70
3986;DHT22;2007;48.750;9.278;2023-02-02T02:04:10;13.90;49.70
3986;DHT22;2007;48.750;9.278;2023-02-02T02:06:38;14.00;49.80
3986;DHT22;2007;48.750;9.278;2023-02-02T02:09:07;14.00;49.80
3986;DHT22;2007;48.750;9.278;2023-02-02T02:11:35;14.00;49.80
3986;DHT22;2007;48.750;9.278;2023-02-02T02:14:06;14.00;49.80
3986;DHT22;2007;48.750;9.278;2023-02-02T02:17:09;14.00;49.80
3986;DHT22;2007;48.750;9.278;2023-02-02T02:23:38;14.00;49.80
3986;DHT22;2007;48.750;9.278;2023-02-02T02:26:45;14.00;49.80
3986;DHT22;2007;48.750;9.278;2023-02-02T02:32:32;14.00;49.80
3986;DHT22;2007;48.750;9.278;2023-02-02T02:35:10;14.00;49.70
3986;DHT22;2007;48.750;9.278;2023-02-02T02:37:45;14.00;49.80
3986;DHT22;2007;48.750;9.278;2023-02-02T02:40:21;14.00;49.80
3986;DHT22;2007;48.750;9.278;2023-02-02T02:42:54;14.00;49.80
3986;DHT22;2007;48.750;9.278;2023-02-02T02:45:24;14.00;49.80
3986;DHT22;2007;48.750;9.278;2023-02-02T02:47:54;14.00;49.80
3986;DHT22;2007;48.750;9.278;2023-02-02T02:50:23;14.00;49.80
3986;DHT22;2007;48.750;9.278;2023-02-02T02:52:58;14.00;49.80
3986;DHT22;2007;48.750;9.278;2023-02-02T02:55:34;14.00;49.80
3986;DHT22;2007;48.750;9.278;2023-02-02T02:58:06;14.00;49.80
3986;DHT22;2007;48.750;9.278;2023-02-02T03:00:46;14.00;49.80
3986;DHT22;2007;48.750;9.278;2023-02-02T03:03:24;14.00;49.70
3986;DHT22;2007;48.750;9.278;2023-02-02T03:06:03;14.00;49.70
3986;DHT22;2007;48.750;9.278;2023-02-02T03:08:34;14.00;49.70
3986;DHT22;2007;48.750;9.278;2023-02-02T03:11:04;14.00;49.80
3986;DHT22;2007;48.750;9.278;2023-02-02T03:13:33;14.00;49.70
3986;DHT22;2007;48.750;9.278;2023-02-02T03:16:01;14.00;49.80
3986;DHT22;2007;48.750;9.278;2023-02-02T03:18:32;14.00;49.80
3986;DHT22;2007;48.750;9.278;2023-02-02T03:21:00;14.00;49.70
3986;DHT22;2007;48.750;9.278;2023-02-02T03:23:28;14.00;49.80
3986;DHT22;2007;48.750;9.278;2023-02-02T03:25:56;14.00;49.70
3986;DHT22;2007;48.750;9.278;2023-02-02T03:28:25;14.00;49.70
3986;DHT22;2007;48.750;9.278;2023-02-02T03:30:54;14.00;49.80
3986;DHT22;2007;48.750;9.278;2023-02-02T03:33:22;14.00;49.70
3986;DHT22;2007;48.750;9.278;2023-02-02T03:35:52;14.00;49.70
3986;DHT22;2007;48.750;9.278;2023-02-02T03:38:19;14.00;49.70
3986;DHT22;2007;48.750;9.278;2023-02-02T03:40:47;14.00;49.70
3986;DHT22;2007;48.750;9.278;2023-02-02T03:43:19;14.00;49.70
3986;DHT22;2007;48.750;9.278;2023-02-02T03:45:54;14.00;49.70
3986;DHT22;2007;48.750;9.278;2023-02-02T03:48:22;14.00;49.70
3986;DHT22;2007;48.750;9.278;2023-02-02T03:50:51;14.00;49.70
3986;DHT22;2007;48.750;9.278;2023-02-02T03:53:19;14.00;49.80
3986;DHT22;2007;48.750;9.278;2023-02-02T03:55:47;14.00;49.70
3986;DHT22;2007;48.750;9.278;2023-02-02T03:58:15;14.00;49.70
3986;DHT22;2007;48.750;9.278;2023-02-02T04:00:43;14.00;49.70
3986;DHT22;2007;48.750;9.278;2023-02-02T04:03:11;14.10;49.90
3986;DHT22;2007;48.750;9.278;2023-02-02T04:05:39;14.00;49.70
3986;DHT22;2007;48.750;9.278;2023-02-02T04:08:08;14.00;49.70
3986;DHT22;2007;48.750;9.278;2023-02-02T04:10:36;14.10;49.80
3986;DHT22;2007;48.750;9.278;2023-02-02T04:13:07;14.00;49.80
3986;DHT22;2007;48.750;9.278;2023-02-02T04:15:35;14.00;49.70
3986;DHT22;2007;48.750;9.278;2023-02-02T04:18:03;14.00;49.70
3986;DHT22;2007;48.750;9.278;2023-02-02T04:20:31;14.00;49.70
3986;DHT22;2007;48.750;9.278;2023-02-02T04:22:59;14.00;49.80
3986;DHT22;2007;48.750;9.278;2023-02-02T04:25:28;14.10;49.90
3986;DHT22;2007;48.750;9.278;2023-02-02T04:27:56;14.10;49.80
3986;DHT22;2007;48.750;9.278;2023-02-02T04:30:24;14.10;49.80
3986;DHT22;2007;48.750;9.278;2023-02-02T04:32:53;14.10;49.80
3986;DHT22;2007;48.750;9.278;2023-02-02T04:35:22;14.00;49.70
3986;DHT22;2007;48.750;9.278;2023-02-02T04:37:50;14.10;49.80
3986;DHT22;2007;48.750;9.278;2023-02-02T04:40:18;14.00;49.80
3986;DHT22;2007;48.750;9.278;2023-02-02T04:42:47;14.10;49.80
3986;DHT22;2007;48.750;9.278;2023-02-02T04:45:15;14.10;49.90
3986;DHT22;2007;48.750;9.278;2023-02-02T04:47:43;14.10;49.90
3986;DHT22;2007;48.750;9.278;2023-02-02T04:50:11;14.10;49.80
3986;DHT22;2007;48.750;9.278;2023-02-02T04:52:39;14.10;49.90
3986;DHT22;2007;48.750;9.278;2023-02-02T04:55:08;14.10;49.80
3986;DHT22;2007;48.750;9.278;2023-02-02T04:57:35;14.10;49.80
3986;DHT22;2007;48.750;9.278;2023-02-02T05:00:06;14.10;49.80
3986;DHT22;2007;48.750;9.278;2023-02-02T05:02:35;14.10;49.90
3986;DHT22;2007;48.750;9.278;2023-02-02T05:05:04;14.10;49.80
3986;DHT22;2007;48.750;9.278;2023-02-02T05:07:33;14.10;49.80
3986;DHT22;2007;48.750;9.278;2023-02-02T05:10:01;14.10;49.80
3986;DHT22;2007;48.750;9.278;2023-02-02T05:12:29;14.10;49.80
3986;DHT22;2007;48.750;9.278;2023-02-02T05:14:57;14.10;49.90
3986;DHT22;2007;48.750;9.278;2023-02-02T05:17:28;14.10;49.80
3986;DHT22;2007;48.750;9.278;2023-02-02T05:19:56;14.10;49.80
3986;DHT22;2007;48.750;9.278;2023-02-02T05:22:24;14.10;49.90
3986;DHT22;2007;48.750;9.278;2023-02-02T05:24:52;14.10;49.80
3986;DHT22;2007;48.750;9.278;2023-02-02T05:27:20;14.10;49.80
3986;DHT22;2007;48.750;9.278;2023-02-02T05:29:48;14.10;49.80
3986;DHT22;2007;48.750;9.278;2023-02-02T05:32:16;14.10;49.80
3986;DHT22;2007;48.750;9.278;2023-02-02T05:34:45;14.10;49.80
3986;DHT22;2007;48.750;9.278;2023-02-02T05:37:13;14.10;49.80
3986;DHT22;2007;48.750;9.278;2023-02-02T05:39:41;14.10;49.80
3986;DHT22;2007;48.750;9.278;2023-02-02T05:42:09;14.10;49.80
3986;DHT22;2007;48.750;9.278;2023-02-02T05:44:37;14.10;49.80
3986;DHT22;2007;48.750;9.278;2023-02-02T05:47:05;14.10;49.80
3986;DHT22;2007;48.750;9.278;2023-02-02T05:49:33;14.10;49.80
3986;DHT22;2007;48.750;9.278;2023-02-02T05:52:02;14.10;49.80
3986;DHT22;2007;48.750;9.278;2023-02-02T05:54:30;14.10;49.80
3986;DHT22;2007;48.750;9.278;2023-02-02T05:56:58;14.10;49.80
3986;DHT22;2007;48.750;9.278;2023-02-02T05:59:28;14.10;49.80
3986;DHT22;2007;48.750;9.278;2023-02-02T06:01:56;14.10;49.80
3986;DHT22;2007;48.750;9.278;2023-02-02T06:04:24;14.10;49.80
3986;DHT22;2007;48.750;9.278;2023-02-02T06:06:52;14.10;49.80
3986;DHT22;2007;48.750;9.278;2023-02-02T06:09:21;14.10;49.80
3986;DHT22;2007;48.750;9.278;2023-02-02T06:11:50;14.10;49.90
3986;DHT22;2007;48.750;9.278;2023-02-02T06:14:18;14.10;49.80
3986;DHT22;2007;48.750;9.278;2023-02-02T06:16:46;14.10;49.80
3986;DHT22;2007;48.750;9.278;2023-02-02T06:19:14;14.10;49.80
3986;DHT22;2007;48.750;9.278;2023-02-02T06:21:42;14.10;49.80
3986;DHT22;2007;48.750;9.278;2023-02-02T06:24:10;14.10;49.90
3986;DHT22;2007;48.750;9.278;2023-02-02T06:26:39;14.10;49.90
3986;DHT22;2007;48.750;9.278;2023-02-02T06:29:11;14.10;49.90
3986;DHT22;2007;48.750;9.278;2023-02-02T06:31:39;14.10;49.80
3986;DHT22;2007;48.750;9.278;2023-02-02T06:34:10;14.10;49.90
3986;DHT22;2007;48.750;9.278;2023-02-02T06:36:40;14.10;49.80
3986;DHT22;2007;48.750;9.278;2023-02-02T06:39:08;14.10;49.80
3986;DHT22;2007;48.750;9.278;2023-02-02T06:41:36;14.10;49.80
3986;DHT22;2007;48.750;9.278;2023-02-02T06:44:05;14.10;49.80
3986;DHT22;2007;48.750;9.278;2023-02-02T06:46:33;14.10;49.80
3986;DHT22;2007;48.750;9.278;2023-02-02T06:49:01;14.10;49.90
3986;DHT22;2007;48.750;9.278;2023-02-02T06:51:29;14.10;49.90
3986;DHT22;2007;48.750;9.278;2023-02-02T06:53:57;14.10;49.80
3986;DHT22;2007;48.750;9.278;2023-02-02T06:56:25;14.10;49.90
3986;DHT22;2007;48.750;9.278;2023-02-02T06:58:53;14.10;50.50
3986;DHT22;2007;48.750;9.278;2023-02-02T07:01:22;14.20;50.00
3986;DHT22;2007;48.750;9.278;2023-02-02T07:03:50;14.10;49.90
3986;DHT22;2007;48.750;9.278;2023-02-02T07:06:20;14.10;49.90
3986;DHT22;2007;48.750;9.278;2023-02-02T07:08:49;14.10;49.80
3986;DHT22;2007;48.750;9.278;2023-02-02T07:11:28;14.10;49.90
3986;DHT22;2007;48.750;9.278;2023-02-02T07:13:56;14.20;49.90
3986;DHT22;2007;48.750;9.278;2023-02-02T07:16:26;14.10;49.90
3986;DHT22;2007;48.750;9.278;2023-02-02T07:18:53;14.20;50.00
3986;DHT22;2007;48.750;9.278;2023-02-02T07:21:24;14.20;49.90
3986;DHT22;2007;48.750;9.278;2023-02-02T07:23:53;14.10;49.90
3986;DHT22;2007;48.750;9.278;2023-02-02T07:26:21;14.10;49.90
3986;DHT22;2007;48.750;9.278;2023-02-02T07:28:51;14.20;50.00
3986;DHT22;2007;48.750;9.278;2023-02-02T07:31:20;14.20;50.00
3986;DHT22;2007;48.750;9.278;2023-02-02T07:33:50;14.10;49.90
3986;DHT22;2007;48.750;9.278;2023-02-02T07:36:19;14.10;49.90
3986;DHT22;2007;48.750;9.278;2023-02-02T07:38:51;14.10;49.90
3986;DHT22;2007;48.750;9.278;2023-02-02T07:41:20;14.10;49.90
3986;DHT22;2007;48.750;9.278;2023-02-02T07:43:49;14.20;50.00
3986;DHT22;2007;48.750;9.278;2023-02-02T07:46:18;14.10;49.90
3986;DHT22;2007;48.750;9.278;2023-02-02T07:48:46;14.20;50.00
3986;DHT22;2007;48.750;9.278;2023-02-02T07:51:16;14.10;49.90
3986;DHT22;2007;48.750;9.278;2023-02-02T07:53:46;14.20;50.00
3986;DHT22;2007;48.750;9.278;2023-02-02T07:56:16;14.20;50.00
3986;DHT22;2007;48.750;9.278;2023-02-02T07:58:44;14.10;49.90
3986;DHT22;2007;48.750;9.278;2023-02-02T08:01:13;14.10;49.90
3986;DHT22;2007;48.750;9.278;2023-02-02T08:03:42;14.20;50.00
3986;DHT22;2007;48.750;9.278;2023-02-02T08:06:13;14.20;50.00
3986;DHT22;2007;48.750;9.278;2023-02-02T08:08:43;14.20;50.00
3986;DHT22;2007;48.750;9.278;2023-02-02T08:11:12;14.20;50.00
3986;DHT22;2007;48.750;9.278;2023-02-02T08:13:41;14.20;50.00
3986;DHT22;2007;48.750;9.278;2023-02-02T08:16:10;14.20;50.00
3986;DHT22;2007;48.750;9.278;2023-02-02T08:18:39;14.20;50.00
3986;DHT22;2007;48.750;9.278;2023-02-02T08:21:08;14.20;50.00
3986;DHT22;2007;48.750;9.278;2023-02-02T08:23:38;14.20;50.00
3986;DHT22;2007;48.750;9.278;2023-02-02T08:26:10;14.20;50.00
3986;DHT22;2007;48.750;9.278;2023-02-02T08:28:38;14.20;50.00
3986;DHT22;2007;48.750;9.278;2023-02-02T08:31:09;14.20;50.00
3986;DHT22;2007;48.750;9.278;2023-02-02T08:33:37;14.20;50.00
3986;DHT22;2007;48.750;9.278;2023-02-02T08:36:09;14.20;50.00
3986;DHT22;2007;48.750;9.278;2023-02-02T08:38:38;14.20;50.00
3986;DHT22;2007;48.750;9.278;2023-02-02T08:41:08;14.20;50.00
3986;DHT22;2007;48.750;9.278;2023-02-02T08:43:36;14.20;50.00
3986;DHT22;2007;48.750;9.278;2023-02-02T08:46:05;14.20;50.00
3986;DHT22;2007;48.750;9.278;2023-02-02T08:48:34;14.20;50.00
3986;DHT22;2007;48.750;9.278;2023-02-02T08:51:03;14.20;50.00
3986;DHT22;2007;48.750;9.278;2023-02-02T08:53:31;14.20;50.00
3986;DHT22;2007;48.750;9.278;2023-02-02T08:56:01;14.20;50.00
3986;DHT22;2007;48.750;9.278;2023-02-02T08:58:31;14.20;50.00
3986;DHT22;2007;48.750;9.278;2023-02-02T09:01:04;14.20;50.00
3986;DHT22;2007;48.750;9.278;2023-02-02T09:03:32;14.20;50.00
3986;DHT22;2007;48.750;9.278;2023-02-02T09:06:04;14.20;50.00
3986;DHT22;2007;48.750;9.278;2023-02-02T09:08:34;14.20;50.00
3986;DHT22;2007;48.750;9.278;2023-02-02T09:11:04;14.20;50.00
3986;DHT22;2007;48.750;9.278;2023-02-02T09:13:33;14.20;50.00
3986;DHT22;2007;48.750;9.278;2023-02-02T09:16:03;14.20;50.00
3986;DHT22;2007;48.750;9.278;2023-02-02T09:18:32;14.20;50.00
3986;DHT22;2007;48.750;9.278;2023-02-02T09:21:01;14.20;50.00
3986;DHT22;2007;48.750;9.278;2023-02-02T09:23:30;14.20;50.00
3986;DHT22;2007;48.750;9.278;2023-02-02T09:26:07;14.20;50.00
3986;DHT22;2007;48.750;9.278;2023-02-02T09:28:37;14.20;50.00
3986;DHT22;2007;48.750;9.278;2023-02-02T09:31:05;14.20;50.00
3986;DHT22;2007;48.750;9.278;2023-02-02T09:33:34;14.20;50.00
3986;DHT22;2007;48.750;9.278;2023-02-02T09:36:06;14.20;50.00
3986;DHT22;2007;48.750;9.278;2023-02-02T09:38:34;14.20;50.00
3986;DHT22;2007;48.750;9.278;2023-02-02T09:41:19;14.20;50.00
3986;DHT22;2007;48.750;9.278;2023-02-02T09:43:56;14.20;50.00
3986;DHT22;2007;48.750;9.278;2023-02-02T09:46:37;14.20;50.00
3986;DHT22;2007;48.750;9.278;2023-02-02T09:49:11;14.20;50.00
3986;DHT22;2007;48.750;9.278;2023-02-02T09:51:44;14.20;50.00
3986;DHT22;2007;48.750;9.278;2023-02-02T09:54:18;14.20;50.00
3986;DHT22;2007;48.750;9.278;2023-02-02T09:56:48;14.20;50.00
3986;DHT22;2007;48.750;9.278;2023-02-02T09:59:24;14.20;50.00
3986;DHT22;2007;48.750;9.278;2023-02-02T10:01:56;14.20;50.00
3986;DHT22;2007;48.750;9.278;2023-02-02T10:04:28;14.20;50.00
3986;DHT22;2007;48.750;9.278;2023-02-02T10:07:04;14.20;50.00
3986;DHT22;2007;48.750;9.278;2023-02-02T10:09:39;14.20;50.00
3986;DHT22;2007;48.750;9.278;2023-02-02T10:12:21;14.20;50.00
3986;DHT22;2007;48.750;9.278;2023-02-02T10:14:56;14.20;50.00
3986;DHT22;2007;48.750;9.278;2023-02-02T10:17:36;14.20;50.00
3986;DHT22;2007;48.750;9.278;2023-02-02T10:20:16;14.20;50.00
3986;DHT22;2007;48.750;9.278;2023-02-02T10:22:47;14.20;50.40
3986;DHT22;2007;48.750;9.278;2023-02-02T10:25:16;14.20;50.00
3986;DHT22;2007;48.750;9.278;2023-02-02T10:27:53;14.20;50.00
3986;DHT22;2007;48.750;9.278;2023-02-02T10:30:30;14.20;50.00
3986;DHT22;2007;48.750;9.278;2023-02-02T10:33:05;14.20;50.70
3986;DHT22;2007;48.750;9.278;2023-02-02T10:35:37;14.20;50.00
3986;DHT22;2007;48.750;9.278;2023-02-02T10:38:15;14.20;50.00
3986;DHT22;2007;48.750;9.278;2023-02-02T10:40:56;14.20;50.00
3986;DHT22;2007;48.750;9.278;2023-02-02T10:43:45;14.20;50.00
3986;DHT22;2007;48.750;9.278;2023-02-02T10:46:20;14.20;50.00
3986;DHT22;2007;48.750;9.278;2023-02-02T10:48:49;14.20;50.00
3986;DHT22;2007;48.750;9.278;2023-02-02T10:51:22;14.20;50.00
3986;DHT22;2007;48.750;9.278;2023-02-02T10:53:53;14.20;50.00
3986;DHT22;2007;48.750;9.278;2023-02-02T10:56:25;14.20;50.00
3986;DHT22;2007;48.750;9.278;2023-02-02T10:59:00;14.20;50.00
3986;DHT22;2007;48.750;9.278;2023-02-02T11:01:31;14.20;50.00
3986;DHT22;2007;48.750;9.278;2023-02-02T11:03:59;14.20;50.00
3986;DHT22;2007;48.750;9.278;2023-02-02T11:06:44;14.20;50.00
3986;DHT22;2007;48.750;9.278;2023-02-02T11:09:20;14.20;50.00
3986;DHT22;2007;48.750;9.278;2023-02-02T11:11:52;14.20;50.00
3986;DHT22;2007;48.750;9.278;2023-02-02T11:14:29;14.20;50.00
3986;DHT22;2007;48.750;9.278;2023-02-02T11:17:04;14.20;50.00
3986;DHT22;2007;48.750;9.278;2023-02-02T11:19:34;14.20;50.00
3986;DHT22;2007;48.750;9.278;2023-02-02T11:22:04;14.20;50.00
3986;DHT22;2007;48.750;9.278;2023-02-02T11:24:39;14.20;50.00
3986;DHT22;2007;48.750;9.278;2023-02-02T11:27:13;14.20;50.00
3986;DHT22;2007;48.750;9.278;2023-02-02T11:29:43;14.20;50.00
3986;DHT22;2007;48.750;9.278;2023-02-02T11:32:19;14.20;50.00
3986;DHT22;2007;48.750;9.278;2023-02-02T11:35:12;14.20;50.00
3986;DHT22;2007;48.750;9.278;2023-02-02T11:37:52;14.20;50.00
3986;DHT22;2007;48.750;9.278;2023-02-02T11:40:27;14.20;50.00
3986;DHT22;2007;48.750;9.278;2023-02-02T11:42:57;14.20;50.00
3986;DHT22;2007;48.750;9.278;2023-02-02T11:45:30;14.20;50.00
3986;DHT22;2007;48.750;9.278;2023-02-02T11:48:05;14.20;50.00
3986;DHT22;2007;48.750;9.278;2023-02-02T11:50:34;14.20;50.00
3986;DHT22;2007;48.750;9.278;2023-02-02T11:53:02;14.20;50.00
3986;DHT22;2007;48.750;9.278;2023-02-02T11:55:31;14.20;50.00
3986;DHT22;2007;48.750;9.278;2023-02-02T11:58:21;14.20;50.00
3986;DHT22;2007;48.750;9.278;2023-02-02T12:00:56;14.30;50.10
3986;DHT22;2007;48.750;9.278;2023-02-02T12:03:32;14.20;50.00
3986;DHT22;2007;48.750;9.278;2023-02-02T12:06:17;14.20;50.00
3986;DHT22;2007;48.750;9.278;2023-02-02T12:08:46;14.20;50.00
3986;DHT22;2007;48.750;9.278;2023-02-02T12:11:27;14.20;50.00
3986;DHT22;2007;48.750;9.278;2023-02-02T12:14:08;14.20;50.00
3986;DHT22;2007;48.750;9.278;2023-02-02T12:16:50;14.20;50.00
3986;DHT22;2007;48.750;9.278;2023-02-02T12:22:40;14.20;50.00
3986;DHT22;2007;48.750;9.278;2023-02-02T12:25:30;14.20;50.00
3986;DHT22;2007;48.750;9.278;2023-02-02T12:28:04;14.30;50.10
3986;DHT22;2007;48.750;9.278;2023-02-02T12:30:41;14.20;50.00
3986;DHT22;2007;48.750;9.278;2023-02-02T12:33:29;14.30;50.10
3986;DHT22;2007;48.750;9.278;2023-02-02T12:36:13;14.30;50.10
3986;DHT22;2007;48.750;9.278;2023-02-02T12:38:58;14.20;50.70
3986;DHT22;2007;48.750;9.278;2023-02-02T12:41:35;14.30;50.10
3986;DHT22;2007;48.750;9.278;2023-02-02T12:44:12;14.20;50.10
3986;DHT22;2007;48.750;9.278;2023-02-02T12:46:56;14.20;50.00
3986;DHT22;2007;48.750;9.278;2023-02-02T12:49:47;14.20;50.00
3986;DHT22;2007;48.750;9.278;2023-02-02T12:52:36;14.30;50.20
3986;DHT22;2007;48.750;9.278;2023-02-02T12:55:16;14.20;50.00
3986;DHT22;2007;48.750;9.278;2023-02-02T12:57:52;14.20;50.00
3986;DHT22;2007;48.750;9.278;2023-02-02T13:01:04;14.20;50.00
3986;DHT22;2007;48.750;9.278;2023-02-02T13:03:44;14.30;50.10
3986;DHT22;2007;48.750;9.278;2023-02-02T13:09:14;14.30;50.20
3986;DHT22;2007;48.750;9.278;2023-02-02T13:11:47;14.30;50.10
3986;DHT22;2007;48.750;9.278;2023-02-02T13:14:22;14.30;50.10
3986;DHT22;2007;48.750;9.278;2023-02-02T13:16:55;14.20;50.00
3986;DHT22;2007;48.750;9.278;2023-02-02T13:19:29;14.20;50.00
3986;DHT22;2007;48.750;9.278;2023-02-02T13:22:01;14.30;50.10
3986;DHT22;2007;48.750;9.278;2023-02-02T13:24:35;14.30;50.80
3986;DHT22;2007;48.750;9.278;2023-02-02T13:27:06;14.30;50.20
3986;DHT22;2007;48.750;9.278;2023-02-02T13:29:40;14.30;50.10
3986;DHT22;2007;48.750;9.278;2023-02-02T13:32:18;14.30;50.20
3986;DHT22;2007;48.750;9.278;2023-02-02T13:34:50;14.30;50.10
3986;DHT22;2007;48.750;9.278;2023-02-02T13:37:26;14.30;50.10
3986;DHT22;2007;48.750;9.278;2023-02-02T13:39:59;14.30;50.10
3986;DHT22;2007;48.750;9.278;2023-02-02T13:42:33;14.30;50.10
3986;DHT22;2007;48.750;9.278;2023-02-02T13:45:14;14.30;50.20
3986;DHT22;2007;48.750;9.278;2023-02-02T13:47:46;14.30;50.10
3986;DHT22;2007;48.750;9.278;2023-02-02T13:50:19;14.30;50.10
3986;DHT22;2007;48.750;9.278;2023-02-02T13:53:11;14.30;50.10
3986;DHT22;2007;48.750;9.278;2023-02-02T13:56:05;14.30;50.10
3986;DHT22;2007;48.750;9.278;2023-02-02T13:59:03;14.30;50.20
3986;DHT22;2007;48.750;9.278;2023-02-02T14:01:34;14.30;50.10
3986;DHT22;2007;48.750;9.278;2023-02-02T14:04:02;14.30;50.20
3986;DHT22;2007;48.750;9.278;2023-02-02T14:06:54;14.30;50.10
3986;DHT22;2007;48.750;9.278;2023-02-02T14:09:25;14.30;50.20
3986;DHT22;2007;48.750;9.278;2023-02-02T14:11:58;14.30;50.10
3986;DHT22;2007;48.750;9.278;2023-02-02T14:14:28;14.30;50.10
3986;DHT22;2007;48.750;9.278;2023-02-02T14:17:03;14.30;50.10
3986;DHT22;2007;48.750;9.278;2023-02-02T14:19:54;14.30;50.10
3986;DHT22;2007;48.750;9.278;2023-02-02T14:22:46;14.30;50.10
3986;DHT22;2007;48.750;9.278;2023-02-02T14:25:48;14.30;50.20
3986;DHT22;2007;48.750;9.278;2023-02-02T14:28:43;14.30;50.20
3986;DHT22;2007;48.750;9.278;2023-02-02T14:31:39;14.30;50.20
3986;DHT22;2007;48.750;9.278;2023-02-02T14:34:25;14.30;50.20
3986;DHT22;2007;48.750;9.278;2023-02-02T14:40:15;14.30;50.20
3986;DHT22;2007;48.750;9.278;2023-02-02T14:42:51;14.30;50.20
3986;DHT22;2007;48.750;9.278;2023-02-02T14:45:42;14.30;50.20
3986;DHT22;2007;48.750;9.278;2023-02-02T14:48:15;14.30;50.20
3986;DHT22;2007;48.750;9.278;2023-02-02T14:50:46;14.30;50.20
3986;DHT22;2007;48.750;9.278;2023-02-02T14:53:23;14.30;50.20
3986;DHT22;2007;48.750;9.278;2023-02-02T14:55:56;14.30;50.20
3986;DHT22;2007;48.750;9.278;2023-02-02T14:58:29;14.30;50.20
3986;DHT22;2007;48.750;9.278;2023-02-02T15:01:09;14.30;50.20
3986;DHT22;2007;48.750;9.278;2023-02-02T15:03:48;14.30;50.10
3986;DHT22;2007;48.750;9.278;2023-02-02T15:06:28;14.30;50.20
3986;DHT22;2007;48.750;9.278;2023-02-02T15:12:17;14.30;50.20
3986;DHT22;2007;48.750;9.278;2023-02-02T15:14:50;14.30;50.20
3986;DHT22;2007;48.750;9.278;2023-02-02T15:17:25;14.30;50.20
3986;DHT22;2007;48.750;9.278;2023-02-02T15:20:05;14.30;50.20
3986;DHT22;2007;48.750;9.278;2023-02-02T15:22:36;14.30;50.20
3986;DHT22;2007;48.750;9.278;2023-02-02T15:25:17;14.30;50.20
3986;DHT22;2007;48.750;9.278;2023-02-02T15:27:52;14.30;50.20
3986;DHT22;2007;48.750;9.278;2023-02-02T15:30:23;14.30;50.20
3986;DHT22;2007;48.750;9.278;2023-02-02T15:32:55;14.30;50.20
3986;DHT22;2007;48.750;9.278;2023-02-02T15:35:25;14.30;50.20
3986;DHT22;2007;48.750;9.278;2023-02-02T15:37:58;14.30;50.20
3986;DHT22;2007;48.750;9.278;2023-02-02T15:40:29;14.30;50.20
3986;DHT22;2007;48.750;9.278;2023-02-02T15:42:59;14.30;50.20
3986;DHT22;2007;48.750;9.278;2023-02-02T15:45:30;14.30;50.20
3986;DHT22;2007;48.750;9.278;2023-02-02T15:48:00;14.30;50.20
3986;DHT22;2007;48.750;9.278;2023-02-02T15:50:32;14.30;50.20
3986;DHT22;2007;48.750;9.278;2023-02-02T15:53:00;14.30;50.20
3986;DHT22;2007;48.750;9.278;2023-02-02T15:55:30;14.30;50.10
3986;DHT22;2007;48.750;9.278;2023-02-02T15:57:58;14.30;50.20
3986;DHT22;2007;48.750;9.278;2023-02-02T16:00:29;14.30;50.10
3986;DHT22;2007;48.750;9.278;2023-02-02T16:03:03;14.30;50.10
3986;DHT22;2007;48.750;9.278;2023-02-02T16:05:45;14.30;50.20
3986;DHT22;2007;48.750;9.278;2023-02-02T16:08:17;14.30;50.10
3986;DHT22;2007;48.750;9.278;2023-02-02T16:10:46;14.30;50.30
3986;DHT22;2007;48.750;9.278;2023-02-02T16:13:26;14.30;50.20
3986;DHT22;2007;48.750;9.278;2023-02-02T16:15:56;14.30;50.20
3986;DHT22;2007;48.750;9.278;2023-02-02T16:18:26;14.30;50.10
3986;DHT22;2007;48.750;9.278;2023-02-02T16:20:55;14.30;50.10
3986;DHT22;2007;48.750;9.278;2023-02-02T16:23:28;14.30;50.20
3986;DHT22;2007;48.750;9.278;2023-02-02T16:25:58;14.30;50.20
3986;DHT22;2007;48.750;9.278;2023-02-02T16:28:27;14.30;50.20
3986;DHT22;2007;48.750;9.278;2023-02-02T16:30:58;14.30;50.20
3986;DHT22;2007;48.750;9.278;2023-02-02T16:33:36;14.30;50.20
3986;DHT22;2007;48.750;9.278;2023-02-02T16:36:16;14.30;50.20
3986;DHT22;2007;48.750;9.278;2023-02-02T16:38:52;14.30;50.20
3986;DHT22;2007;48.750;9.278;2023-02-02T16:41:28;14.30;50.20
3986;DHT22;2007;48.750;9.278;2023-02-02T16:44:36;14.30;50.20
3986;DHT22;2007;48.750;9.278;2023-02-02T16:47:05;14.30;50.10
3986;DHT22;2007;48.750;9.278;2023-02-02T16:49:35;14.40;50.30
3986;DHT22;2007;48.750;9.278;2023-02-02T16:52:09;14.30;50.20
3986;DHT22;2007;48.750;9.278;2023-02-02T16:54:38;14.30;50.20
3986;DHT22;2007;48.750;9.278;2023-02-02T16:57:15;14.30;50.20